Time;durP1;ratioP1;P1;durP2;ratioP2;P2;SDS_P1;SDS_P2;PMS_P1;PMS_P2;Temp;Humidity;BMP_temperature;BMP_pressure;BME280_temperature;BME280_humidity;BME280_pressure;Samples;Min_cycle;Max_cycle;Signal;HPM_P1;HPM_P2
2022/10/10 00:01:31;;;;;;;3.75;2.03;;;;;;;6.11;75.66;100840.53;6213207;23;20280;-73
2022/10/10 00:04:34;;;;;;;5.20;1.58;;;;;;;6.14;75.22;100843.06;6212693;23;20027;-73
2022/10/10 00:07:37;;;;;;;5.13;1.48;;;;;;;6.07;75.33;100847.56;6211900;23;20071;-73
2022/10/10 00:10:43;;;;;;;3.30;1.52;;;;;;;6.03;75.38;100841.63;6212672;23;20051;-73
2022/10/10 00:13:47;;;;;;;4.00;1.67;;;;;;;6.14;75.00;100843.91;6213871;23;20511;-73
2022/10/10 00:16:51;;;;;;;3.63;1.80;;;;;;;6.16;74.33;100841.25;6213332;23;20083;-73
2022/10/10 00:19:54;;;;;;;;;;;;;;;6.09;75.19;100840.56;6215124;23;20026;-73
2022/10/10 00:22:57;;;;;;;6.65;1.67;;;;;;;6.08;74.93;100844.06;6214030;23;20259;-73
2022/10/10 00:26:01;;;;;;;;;;;;;;;6.14;74.63;100838.72;6214381;23;20039;-73
2022/10/10 00:29:04;;;;;;;3.05;1.48;;;;;;;5.78;75.50;100836.22;6213926;23;20027;-73
2022/10/10 00:32:07;;;;;;;5.15;1.50;;;;;;;5.73;75.84;100826.88;6213901;23;20462;-73
2022/10/10 00:35:11;;;;;;;5.35;1.70;;;;;;;5.70;75.88;100821.75;6213863;23;20024;-73
2022/10/10 00:38:14;;;;;;;4.25;1.80;;;;;;;5.72;76.02;100825.16;6214254;23;20028;-73
2022/10/10 00:41:18;;;;;;;4.20;1.95;;;;;;;5.71;75.76;100818.25;6194606;23;20079;-73
2022/10/10 00:44:21;;;;;;;4.07;1.70;;;;;;;5.87;75.26;100819.56;6213682;23;20032;-73
2022/10/10 00:47:25;;;;;;;8.05;1.75;;;;;;;5.86;75.20;100819.59;6213647;23;20027;-73
2022/10/10 00:50:32;;;;;;;5.60;1.58;;;;;;;5.88;75.31;100817.81;6213674;23;20024;-73
2022/10/10 00:53:38;;;;;;;3.40;1.80;;;;;;;5.82;75.28;100813.63;6214251;23;20059;-73
2022/10/10 00:57:10;;;;;;;6.50;2.10;;;;;;;5.76;75.11;100808.63;6214089;23;20044;-73
2022/10/10 01:00:13;;;;;;;4.85;2.00;;;;;;;5.72;75.70;100810.44;6203717;23;20086;-73
2022/10/10 01:03:17;;;;;;;5.75;2.17;;;;;;;5.62;75.92;100809.00;6214279;23;20024;-73
2022/10/10 01:06:20;;;;;;;3.90;1.67;;;;;;;5.67;75.46;100801.94;6213968;23;20022;-73
2022/10/10 01:09:25;;;;;;;6.03;2.08;;;;;;;5.71;75.75;100802.69;6213478;23;20083;-73
2022/10/10 01:12:37;;;;;;;8.20;1.90;;;;;;;5.76;75.13;100796.50;6213688;23;20471;-73
2022/10/10 01:16:00;;;;;;;4.63;1.75;;;;;;;5.78;74.97;100794.72;6195221;23;20349;-73
2022/10/10 01:19:18;;;;;;;6.00;2.20;;;;;;;5.75;74.72;100791.34;6213832;23;20027;-73
2022/10/10 01:22:56;;;;;;;4.13;1.50;;;;;;;5.62;75.55;100797.78;6213716;23;20467;-73
2022/10/10 01:26:12;;;;;;;4.15;1.83;;;;;;;5.65;75.22;100793.34;6194671;23;20078;-73
2022/10/10 01:29:21;;;;;;;4.40;1.70;;;;;;;5.52;75.35;100789.38;6212605;23;20323;-73
2022/10/10 01:32:32;;;;;;;2.92;1.85;;;;;;;5.60;75.02;100780.50;6213725;23;20026;-73
2022/10/10 01:36:12;;;;;;;5.15;2.10;;;;;;;5.51;75.23;100780.75;6213484;23;20027;-73
2022/10/10 01:39:36;;;;;;;3.47;2.00;;;;;;;5.48;75.49;100774.78;6213693;23;20463;-73
2022/10/10 01:43:01;;;;;;;9.25;1.80;;;;;;;5.44;75.53;100773.19;6213989;23;20028;-73
2022/10/10 01:46:16;;;;;;;3.85;1.70;;;;;;;5.53;75.22;100768.59;6214096;23;20070;-73
2022/10/10 01:49:25;;;;;;;5.55;1.55;;;;;;;5.44;75.31;100770.59;6195357;23;20463;-73
2022/10/10 01:52:50;;;;;;;5.10;1.83;;;;;;;5.35;75.75;100764.75;6215345;23;20075;-73
2022/10/10 01:55:58;;;;;;;5.63;1.70;;;;;;;5.21;76.09;100769.47;6215404;23;20028;-73
2022/10/10 01:59:41;;;;;;;6.93;2.17;;;;;;;5.42;75.13;100768.03;6215868;23;20070;-73
2022/10/10 02:02:56;;;;;;;5.53;2.28;;;;;;;5.44;75.14;100758.47;6215185;23;20024;-73
2022/10/10 02:06:12;;;;;;;6.20;2.25;;;;;;;5.49;75.26;100750.59;6215468;23;20018;-73
2022/10/10 02:09:25;;;;;;;8.35;2.30;;;;;;;5.38;74.90;100752.59;6215491;23;20151;-73
2022/10/10 02:12:30;;;;;;;;;;;;;;;5.26;75.40;100754.63;6214579;23;20460;-73
2022/10/10 02:15:41;;;;;;;4.72;1.80;;;;;;;5.39;74.84;100751.69;6215104;23;19954;-73
2022/10/10 02:18:48;;;;;;;3.17;1.50;;;;;;;5.23;75.61;100746.97;6214633;23;20024;-73
2022/10/10 02:21:53;;;;;;;5.13;2.08;;;;;;;5.33;75.22;100744.97;6214992;23;20058;-73
2022/10/10 02:24:57;;;;;;;15.93;2.47;;;;;;;5.25;75.43;100746.91;6196630;23;20066;-73
2022/10/10 02:28:19;;;;;;;3.78;1.70;;;;;;;5.30;74.95;100750.22;6215212;23;20067;-73
2022/10/10 02:31:36;;;;;;;4.43;1.80;;;;;;;5.22;75.39;100752.16;6215403;23;20098;-73
2022/10/10 02:34:45;;;;;;;5.20;1.70;;;;;;;5.08;75.96;100760.31;6214425;23;20034;-73
2022/10/10 02:37:52;;;;;;;5.75;2.30;;;;;;;5.15;75.17;100764.44;6214660;23;20028;-73
2022/10/10 02:40:57;;;;;;;3.65;1.80;;;;;;;5.15;75.30;100761.00;6215115;23;20032;-73
2022/10/10 02:44:01;;;;;;;3.63;1.58;;;;;;;5.08;75.63;100762.91;6215360;23;20095;-73
2022/10/10 02:47:05;;;;;;;3.35;1.52;;;;;;;5.08;75.63;100755.13;6215114;23;20463;-73
2022/10/10 02:50:08;;;;;;;10.77;1.67;;;;;;;5.27;75.02;100751.16;6214474;23;20028;-73
2022/10/10 02:53:12;;;;;;;2.60;1.67;;;;;;;5.21;75.05;100748.72;6214489;23;20026;-73
2022/10/10 02:56:15;;;;;;;;;;;;;;;5.21;75.22;100747.88;6215695;23;20415;-73
2022/10/10 02:59:19;;;;;;;3.30;1.50;;;;;;;5.14;75.16;100749.78;6215383;23;20381;-73
2022/10/10 03:02:22;;;;;;;5.88;1.90;;;;;;;5.00;75.14;100741.50;6214792;23;20031;-73
2022/10/10 03:05:26;;;;;;;3.22;1.85;;;;;;;5.05;75.15;100742.25;6214911;23;20051;-73
2022/10/10 03:08:29;;;;;;;;;;;;;;;5.08;75.06;100744.75;6215823;23;20023;-73
2022/10/10 03:11:32;;;;;;;3.45;2.00;;;;;;;5.14;75.35;100739.41;6214254;23;19998;-73
2022/10/10 03:14:36;;;;;;;;;;;;;;;4.85;76.06;100746.19;6214196;23;20523;-73
2022/10/10 03:17:39;;;;;;;9.52;1.58;;;;;;;5.02;75.58;100742.31;6213001;23;19937;-73
2022/10/10 03:20:51;;;;;;;3.95;1.70;;;;;;;4.93;75.54;100742.56;6213695;23;20031;-73
2022/10/10 03:23:54;;;;;;;3.75;1.48;;;;;;;4.90;75.34;100746.06;6214690;23;20082;-73
2022/10/10 03:26:57;;;;;;;;;;;;;;;4.98;75.18;100738.09;6215234;23;20514;-73
2022/10/10 03:30:02;;;;;;;4.47;1.60;;;;;;;5.01;75.31;100745.78;6214957;23;20033;-73
2022/10/10 03:33:06;;;;;;;5.50;1.88;;;;;;;5.11;74.72;100744.69;6214477;23;20360;-73
2022/10/10 03:36:09;;;;;;;3.42;1.80;;;;;;;4.81;75.98;100743.72;6195987;23;20023;-73
2022/10/10 03:39:12;;;;;;;;;;;;;;;4.84;75.89;100741.03;6215330;23;20082;-73
2022/10/10 03:42:16;;;;;;;5.80;1.80;;;;;;;4.89;75.44;100740.03;6213471;23;19930;-73
2022/10/10 03:45:19;;;;;;;6.35;2.00;;;;;;;4.83;76.04;100742.78;6212747;23;20074;-73
2022/10/10 03:48:23;;;;;;;;;;;;;;;4.76;76.19;100745.59;6213146;23;20513;-73
2022/10/10 03:51:26;;;;;;;3.17;1.70;;;;;;;4.81;75.80;100744.56;6213919;23;19914;-73
2022/10/10 03:54:30;;;;;;;5.40;2.00;;;;;;;4.85;75.48;100746.19;6214073;23;20055;-73
2022/10/10 03:57:33;;;;;;;;;;;;;;;4.98;75.05;100743.28;6215456;23;20086;-73
2022/10/10 04:00:37;;;;;;;3.75;1.92;;;;;;;4.90;74.65;100752.09;6213599;23;19914;-73
2022/10/10 04:03:41;;;;;;;3.60;1.33;;;;;;;4.89;74.98;100750.41;6214085;23;20023;-73
2022/10/10 04:06:45;;;;;;;5.30;1.55;;;;;;;4.97;74.57;100751.94;6213347;23;20023;-73
2022/10/10 04:09:49;;;;;;;3.03;1.33;;;;;;;4.80;75.06;100750.63;6214853;23;20428;-73
2022/10/10 04:12:58;;;;;;;4.97;1.75;;;;;;;4.81;75.15;100767.88;6213997;23;20402;-73
2022/10/10 04:16:07;;;;;;;3.83;1.65;;;;;;;4.80;75.62;100763.59;6214548;23;20456;-73
2022/10/10 04:19:17;;;;;;;2.83;1.52;;;;;;;4.71;75.55;100758.63;6214151;23;20345;-73
2022/10/10 04:22:32;;;;;;;3.42;1.55;;;;;;;4.83;75.11;100765.25;6196943;23;20055;-73
2022/10/10 04:25:48;;;;;;;3.97;1.70;;;;;;;4.91;74.80;100768.50;6214656;23;20023;-73
2022/10/10 04:29:07;;;;;;;4.50;1.50;;;;;;;4.85;74.82;100769.53;6214482;23;20094;-73
2022/10/10 04:32:21;;;;;;;3.40;1.60;;;;;;;4.88;75.13;100766.84;6214546;23;20096;-73
2022/10/10 04:35:31;;;;;;;4.47;1.65;;;;;;;4.62;75.23;100756.25;6210349;23;20147;-73
2022/10/10 04:38:41;;;;;;;4.68;1.73;;;;;;;4.64;75.27;100757.09;6208027;23;20498;-74
2022/10/10 04:41:50;;;;;;;5.85;1.88;;;;;;;4.68;75.36;100763.03;6208039;23;20027;-74
2022/10/10 04:44:57;;;;;;;4.80;2.42;;;;;;;4.74;75.34;100761.13;6206013;23;20028;-73
2022/10/10 04:48:04;;;;;;;5.35;1.77;;;;;;;4.58;75.75;100765.00;6206643;23;20078;-73
2022/10/10 04:51:11;;;;;;;9.70;2.03;;;;;;;4.51;75.76;100766.03;6189075;23;20027;-73
2022/10/10 04:54:19;;;;;;;5.70;2.10;;;;;;;4.38;76.16;100761.13;6207956;23;20023;-73
2022/10/10 04:57:25;;;;;;;3.60;1.83;;;;;;;4.45;76.09;100763.59;6207670;23;20049;-73
2022/10/10 05:00:31;;;;;;;7.43;1.77;;;;;;;4.55;76.21;100755.56;6207647;23;20456;-73
2022/10/10 05:03:39;;;;;;;4.82;1.98;;;;;;;4.33;76.49;100760.38;6208425;23;20074;-73
2022/10/10 05:06:48;;;;;;;4.43;1.40;;;;;;;4.45;76.27;100759.25;6207483;23;20062;-73
2022/10/10 05:09:57;;;;;;;4.38;1.70;;;;;;;4.45;76.16;100755.81;6209907;23;20471;-73
2022/10/10 05:13:03;;;;;;;7.15;1.67;;;;;;;4.38;75.95;100757.69;6210811;23;20028;-73
2022/10/10 05:16:08;;;;;;;5.72;1.60;;;;;;;4.53;75.56;100757.34;6209273;23;20083;-73
2022/10/10 05:19:12;;;;;;;;;;;;;;;4.45;75.96;100759.25;6208962;23;20051;-73
2022/10/10 05:22:15;;;;;;;4.05;2.20;;;;;;;4.30;76.61;100759.59;6207929;23;19989;-73
2022/10/10 05:25:18;;;;;;;4.32;1.65;;;;;;;4.52;75.74;100760.81;6209874;23;20074;-73
2022/10/10 05:28:22;;;;;;;;;;;;;;;4.70;75.23;100762.13;6210058;23;20023;-73
2022/10/10 05:31:25;;;;;;;4.72;2.22;;;;;;;4.57;75.34;100763.31;6211121;23;19915;-73
2022/10/10 05:34:30;;;;;;;3.63;1.70;;;;;;;4.56;75.55;100766.75;6210523;23;20079;-73
2022/10/10 05:37:35;;;;;;;3.38;1.45;;;;;;;4.62;75.48;100771.78;6210898;23;20361;-74
2022/10/10 05:40:41;;;;;;;7.18;2.00;;;;;;;4.53;75.65;100770.28;6209549;23;20031;-73
2022/10/10 05:43:45;;;;;;;6.18;2.05;;;;;;;4.50;75.40;100767.78;6209569;23;20027;-73
2022/10/10 05:46:49;;;;;;;7.85;1.60;;;;;;;4.42;75.58;100767.94;6209479;23;20092;-73
2022/10/10 05:49:53;;;;;;;2.85;1.50;;;;;;;4.48;75.71;100774.72;6211589;23;20464;-73
2022/10/10 05:52:57;;;;;;;5.38;1.65;;;;;;;4.42;76.07;100778.28;6214568;23;20079;-73
2022/10/10 05:56:01;;;;;;;3.92;1.50;;;;;;;4.16;76.44;100778.03;6215463;23;20515;-73
2022/10/10 05:59:04;;;;;;;3.53;1.73;;;;;;;4.37;76.85;100787.91;6214915;23;20526;-73
2022/10/10 06:02:07;;;;;;;;;;;;;;;4.42;76.02;100780.03;6216704;23;20043;-73
2022/10/10 06:05:11;;;;;;;3.83;1.50;;;;;;;4.26;76.62;100779.53;6214235;23;20370;-73
2022/10/10 06:08:14;;;;;;;9.98;1.77;;;;;;;4.38;76.14;100774.06;6214496;23;20027;-73
2022/10/10 06:11:19;;;;;;;;;;;;;;;4.45;76.43;100777.38;6216444;23;20027;-73
2022/10/10 06:14:22;;;;;;;5.82;2.03;;;;;;;4.58;76.01;100781.38;6215913;23;20239;-73
2022/10/10 06:17:26;;;;;;;4.43;1.67;;;;;;;4.38;76.55;100784.44;6211168;23;20476;-73
2022/10/10 06:20:29;;;;;;;3.83;1.55;;;;;;;4.42;76.76;100780.88;6212127;23;20028;-73
2022/10/10 06:23:33;;;;;;;4.53;2.03;;;;;;;4.51;76.45;100782.41;6211772;23;20524;-73
2022/10/10 06:26:37;;;;;;;6.53;1.70;;;;;;;4.34;77.09;100785.41;6212021;23;20106;-73
2022/10/10 06:29:40;;;;;;;4.65;1.83;;;;;;;4.41;77.06;100781.78;6211511;23;20126;-73
2022/10/10 06:32:43;;;;;;;;;;;;;;;4.56;76.50;100787.47;6209558;23;20563;-73
2022/10/10 06:35:48;;;;;;;5.38;2.03;;;;;;;4.71;76.29;100783.69;6209174;23;19919;-73
2022/10/10 06:38:51;;;;;;;7.80;3.70;;;;;;;4.57;76.48;100789.19;6209888;23;20027;-73
2022/10/10 06:41:54;;;;;;;7.13;2.00;;;;;;;4.72;75.96;100799.19;6210652;23;20055;-73
2022/10/10 06:44:58;;;;;;;5.25;1.90;;;;;;;4.63;77.06;100795.09;6209902;23;20068;-73
2022/10/10 06:48:02;;;;;;;4.20;2.00;;;;;;;4.70;76.79;100802.72;6209818;23;20051;-73
2022/10/10 06:51:09;;;;;;;5.68;1.60;;;;;;;4.76;76.27;100806.00;6191319;23;20027;-73
2022/10/10 06:54:13;;;;;;;3.10;1.30;;;;;;;4.57;76.19;100800.41;6209668;23;20523;-73
2022/10/10 06:57:16;;;;;;;4.88;1.90;;;;;;;4.81;75.79;100801.56;6190562;23;20074;-73
2022/10/10 07:00:20;;;;;;;3.67;1.55;;;;;;;4.86;75.67;100804.88;6195990;23;20027;-73
2022/10/10 07:03:24;;;;;;;9.25;2.10;;;;;;;4.86;76.22;100806.63;6214903;23;20055;-73
2022/10/10 07:06:28;;;;;;;3.53;2.20;;;;;;;4.80;77.22;100815.41;6215297;23;20019;-73
2022/10/10 07:09:32;;;;;;;4.95;1.80;;;;;;;4.87;76.96;100814.34;6215118;23;20074;-73
2022/10/10 07:12:35;;;;;;;3.20;1.50;;;;;;;4.83;77.19;100811.88;6215044;23;20447;-73
2022/10/10 07:15:38;;;;;;;;;;;;;;;4.85;77.18;100810.09;6216001;23;20055;-73
2022/10/10 07:18:42;;;;;;;6.20;1.88;;;;;;;4.93;76.75;100812.53;6215273;23;19914;-73
2022/10/10 07:21:46;;;;;;;3.00;1.40;;;;;;;5.06;76.46;100814.75;6196745;23;20431;-73
2022/10/10 07:24:49;;;;;;;9.75;1.80;;;;;;;5.03;76.89;100816.59;6214971;23;20047;-73
2022/10/10 07:27:53;;;;;;;;;;;;;;;5.00;77.42;100808.88;6215061;23;20024;-73
2022/10/10 07:30:58;;;;;;;;;;;;;;;5.08;77.62;100814.75;6214759;23;19914;-73
2022/10/10 07:34:04;;;;;;;7.03;2.20;;;;;;;5.21;77.31;100807.50;6214656;23;19999;-73
2022/10/10 07:37:08;;;;;;;4.00;1.70;;;;;;;5.32;77.74;100816.69;6214577;23;20024;-73
2022/10/10 07:40:11;;;;;;;4.65;1.73;;;;;;;5.35;77.70;100816.59;6214596;23;20024;-73
2022/10/10 07:43:15;;;;;;;;;;;;;;;5.40;78.45;100813.06;6215279;23;20031;-73
2022/10/10 07:46:19;;;;;;;4.60;1.65;;;;;;;5.50;79.09;100805.00;6196072;23;19934;-73
2022/10/10 07:49:22;;;;;;;3.22;1.80;;;;;;;5.40;79.15;100807.88;6214606;23;20039;-73
2022/10/10 07:52:25;;;;;;;6.65;2.35;;;;;;;5.52;79.45;100802.34;6214613;23;20075;-73
2022/10/10 07:55:29;;;;;;;;;;;;;;;5.56;79.13;100806.56;6214893;23;20100;-73
2022/10/10 07:58:33;;;;;;;;;;;;;;;5.71;78.42;100805.28;6215293;23;20247;-73
2022/10/10 08:01:36;;;;;;;6.72;1.98;;;;;;;5.71;78.75;100797.50;6214203;23;19914;-73
2022/10/10 08:04:40;;;;;;;3.88;2.13;;;;;;;5.85;78.82;100802.31;6195823;23;20027;-73
2022/10/10 08:07:44;;;;;;;5.40;2.10;;;;;;;5.76;79.81;100801.69;6213753;23;20093;-73
2022/10/10 08:10:49;;;;;;;4.00;1.60;;;;;;;5.81;80.61;100797.22;6214392;23;20027;-73
2022/10/10 08:13:52;;;;;;;4.55;2.25;;;;;;;5.99;80.17;100785.47;6214420;23;20027;-73
2022/10/10 08:16:57;;;;;;;;;;;;;;;6.20;80.09;100794.38;6215019;23;20340;-73
2022/10/10 08:20:02;;;;;;;5.53;2.55;;;;;;;6.36;80.40;100788.75;6213830;23;19915;-73
2022/10/10 08:23:05;;;;;;;7.57;2.20;;;;;;;6.55;80.42;100787.28;6213546;23;20526;-73
2022/10/10 08:26:11;;;;;;;3.40;2.05;;;;;;;6.60;80.21;100780.16;6213673;23;20086;-73
2022/10/10 08:29:16;;;;;;;5.32;2.53;;;;;;;6.62;81.59;100786.16;6213646;23;20452;-73
2022/10/10 08:32:20;;;;;;;4.72;2.15;;;;;;;6.73;82.08;100776.31;6196508;23;20035;-73
2022/10/10 08:35:24;;;;;;;4.47;2.85;;;;;;;6.78;81.82;100772.69;6213738;23;20560;-73
2022/10/10 08:38:27;;;;;;;3.30;2.13;;;;;;;6.89;82.61;100762.78;6208254;23;20400;-73
2022/10/10 08:41:41;;;;;;;4.22;2.60;;;;;;;6.90;83.31;100756.69;6209622;23;20046;-73
2022/10/10 08:44:50;;;;;;;5.00;2.88;;;;;;;7.11;83.38;100758.56;6211440;23;20075;-73
2022/10/10 08:48:09;;;;;;;3.13;1.92;;;;;;;7.25;82.46;100745.09;6209505;23;20097;-73
2022/10/10 08:51:26;;;;;;;5.10;3.20;;;;;;;7.47;82.90;100747.78;6209708;23;20079;-73
2022/10/10 08:54:33;;;;;;;4.18;3.10;;;;;;;7.53;83.94;100742.38;6209498;23;20451;-74
2022/10/10 08:57:51;;;;;;;3.90;2.75;;;;;;;7.67;83.64;100742.69;6210087;23;20063;-73
2022/10/10 09:01:03;;;;;;;5.13;3.00;;;;;;;7.71;84.69;100730.41;6211024;23;20071;-73
2022/10/10 09:04:16;;;;;;;7.50;4.00;;;;;;;7.86;83.45;100732.44;6209854;23;20028;-73
2022/10/10 09:07:25;;;;;;;5.18;3.45;;;;;;;7.93;83.36;100736.50;6210779;23;20070;-73
2022/10/10 09:10:38;;;;;;;5.45;2.95;;;;;;;8.02;83.71;100724.91;6211451;23;20371;-73
2022/10/10 09:13:51;;;;;;;6.70;4.72;;;;;;;8.11;83.55;100727.16;6213104;23;20375;-73
2022/10/10 09:17:02;;;;;;;8.90;4.63;;;;;;;8.23;82.40;100720.63;6209770;23;20028;-74
2022/10/10 09:20:20;;;;;;;8.93;3.53;;;;;;;8.41;82.86;100720.81;6210376;23;20031;-73
2022/10/10 09:23:40;;;;;;;6.47;3.25;;;;;;;8.53;82.95;100715.97;6209614;23;20078;-73
2022/10/10 09:26:50;;;;;;;7.13;3.78;;;;;;;8.74;83.84;100718.59;6211746;23;20019;-73
2022/10/10 09:29:58;;;;;;;6.47;2.95;;;;;;;8.84;83.01;100718.16;6212156;23;20047;-73
2022/10/10 09:33:32;;;;;;;7.93;3.38;;;;;;;8.97;82.58;100726.31;6211809;23;20506;-73
2022/10/10 09:36:36;;;;;;;6.97;3.40;;;;;;;9.14;83.97;100728.19;6209909;23;20444;-73
2022/10/10 09:39:42;;;;;;;9.25;3.83;;;;;;;9.22;84.23;100727.84;6210673;23;20532;-74
2022/10/10 09:42:46;;;;;;;4.80;2.90;;;;;;;9.33;83.78;100730.84;6210653;23;20031;-74
2022/10/10 09:45:57;;;;;;;9.10;3.15;;;;;;;9.47;85.56;100725.84;6207859;23;20119;-73
2022/10/10 09:49:00;;;;;;;10.15;3.20;;;;;;;9.63;84.84;100723.41;6211694;23;20086;-73
2022/10/10 09:52:24;;;;;;;5.82;2.53;;;;;;;9.69;84.40;100725.75;6209304;23;20030;-73
2022/10/10 09:55:36;;;;;;;5.10;2.70;;;;;;;9.84;84.56;100723.38;6211850;23;20400;-73
2022/10/10 09:58:44;;;;;;;6.25;3.15;;;;;;;9.93;83.25;100730.78;6194592;23;20062;-73
2022/10/10 10:02:01;;;;;;;7.78;3.42;;;;;;;10.04;83.91;100728.50;6211669;23;20043;-74
2022/10/10 10:05:24;;;;;;;8.48;3.63;;;;;;;10.24;85.01;100723.19;6212075;23;20555;-73
2022/10/10 10:08:33;;;;;;;6.45;2.58;;;;;;;10.37;84.86;100720.88;6210942;23;20074;-74
2022/10/10 10:11:40;;;;;;;5.55;2.58;;;;;;;10.48;85.90;100715.97;6207616;23;20024;-73
2022/10/10 10:14:45;;;;;;;7.28;2.88;;;;;;;10.64;85.53;100715.22;6211785;23;20027;-73
2022/10/10 10:18:10;;;;;;;4.97;2.30;;;;;;;10.86;85.93;100715.84;6192461;23;20027;-73
2022/10/10 10:21:23;;;;;;;7.00;2.90;;;;;;;10.90;85.75;100709.50;6192202;23;20058;-73
2022/10/10 10:24:35;;;;;;;6.50;2.70;;;;;;;10.81;84.75;100712.59;6207815;23;20396;-74
2022/10/10 10:27:38;;;;;;;5.65;2.97;;;;;;;10.81;84.92;100707.34;6210637;23;20535;-73
2022/10/10 10:30:43;;;;;;;7.47;2.83;;;;;;;10.96;86.67;100703.13;6210720;23;20031;-74
2022/10/10 10:34:20;;;;;;;6.35;3.00;;;;;;;11.10;86.00;100697.19;6210053;23;20027;-74
2022/10/10 10:37:33;;;;;;;5.53;2.50;;;;;;;11.19;85.88;100701.94;6209597;23;20503;-73
2022/10/10 10:40:40;;;;;;;;;;;;;;;11.41;87.02;100697.28;6211283;23;20040;-73
2022/10/10 10:44:12;;;;;;;5.35;2.67;;;;;;;11.35;85.29;100697.59;6209955;23;20244;-73
2022/10/10 10:47:36;;;;;;;5.70;2.45;;;;;;;11.48;87.37;100689.09;6208669;23;20027;-74
2022/10/10 10:50:58;;;;;;;4.25;2.50;;;;;;;11.49;86.71;100688.19;6209924;23;20071;-74
2022/10/10 10:54:23;;;;;;;8.23;2.38;;;;;;;11.42;87.50;100692.88;6207691;23;20059;-74
2022/10/10 10:57:45;;;;;;;6.03;2.88;;;;;;;11.49;89.22;100689.03;6208602;23;20025;-74
2022/10/10 11:00:58;;;;;;;7.35;2.65;;;;;;;11.83;89.41;100692.44;6207985;23;20027;-74
2022/10/10 11:04:31;;;;;;;10.68;2.97;;;;;;;12.09;87.87;100696.25;6208768;23;20499;-74
2022/10/10 11:08:10;;;;;;;8.27;2.42;;;;;;;12.39;88.41;100691.06;6217036;23;20019;-74
2022/10/10 11:11:36;;;;;;;9.85;2.35;;;;;;;12.48;85.49;100697.56;6215225;23;20067;-74
2022/10/10 11:15:05;;;;;;;4.13;2.28;;;;;;;12.34;85.64;100688.69;6215434;23;20047;-73
2022/10/10 11:18:14;;;;;;;5.55;2.65;;;;;;;12.29;89.10;100685.50;6213558;23;20345;-73
2022/10/10 11:21:24;;;;;;;8.43;3.70;;;;;;;12.40;87.70;100681.41;6215381;23;20391;-73
2022/10/10 11:24:46;;;;;;;8.52;2.40;;;;;;;12.88;87.77;100690.00;6197798;23;20078;-74
2022/10/10 11:28:03;;;;;;;6.40;3.00;;;;;;;12.65;86.81;100691.34;6215691;23;20023;-73
2022/10/10 11:31:15;;;;;;;12.35;3.92;;;;;;;12.96;85.52;100685.97;6214620;23;20063;-73
2022/10/10 11:34:25;;;;;;;8.40;2.85;;;;;;;12.98;85.77;100684.09;6214501;23;20171;-74
2022/10/10 11:37:34;;;;;;;11.82;3.58;;;;;;;13.40;84.22;100689.50;6215118;23;20384;-73
2022/10/10 11:40:55;;;;;;;8.35;2.97;;;;;;;13.57;83.93;100676.19;6215290;23;20024;-74
2022/10/10 11:44:15;;;;;;;7.50;2.92;;;;;;;14.11;82.76;100676.25;6215161;23;20077;-74
2022/10/10 11:47:30;;;;;;;11.13;2.97;;;;;;;14.76;78.49;100664.97;6214309;23;20023;-73
2022/10/10 11:50:39;;;;;;;12.13;3.47;;;;;;;14.98;75.59;100677.53;6215399;23;20024;-74
2022/10/10 11:53:46;;;;;;;13.98;4.07;;;;;;;15.03;73.71;100669.31;6214925;23;20135;-74
2022/10/10 11:56:52;;;;;;;10.57;3.10;;;;;;;15.57;69.81;100658.50;6196343;23;20023;-73
2022/10/10 12:00:01;;;;;;;6.97;2.55;;;;;;;15.61;70.15;100669.69;6215217;23;20063;-73
2022/10/10 12:03:07;;;;;;;7.82;2.30;;;;;;;16.03;67.53;100665.78;6215054;23;20028;-74
2022/10/10 12:06:32;;;;;;;11.32;2.75;;;;;;;16.02;67.14;100664.94;6215080;23;20024;-74
2022/10/10 12:09:46;;;;;;;13.60;3.38;;;;;;;15.96;66.97;100657.47;6214738;23;20031;-73
2022/10/10 12:12:55;;;;;;;10.38;2.63;;;;;;;16.17;65.97;100657.69;6214874;23;20349;-73
2022/10/10 12:16:13;;;;;;;9.63;3.40;;;;;;;16.40;65.01;100663.91;6178833;23;20039;-73
2022/10/10 12:19:19;;;;;;;8.82;2.88;;;;;;;16.22;65.96;100660.00;6214473;23;20353;-74
2022/10/10 12:22:27;;;;;;;7.95;2.30;;;;;;;16.31;65.08;100659.31;6215089;23;20051;-74
2022/10/10 12:25:46;;;;;;;9.90;3.13;;;;;;;16.32;64.12;100657.50;6214542;23;20392;-75
2022/10/10 12:29:08;;;;;;;9.43;3.53;;;;;;;16.04;65.82;100662.16;6225567;23;20028;-73
2022/10/10 12:32:16;;;;;;;15.68;2.53;;;;;;;16.23;64.51;100662.50;6214293;23;20091;-74
2022/10/10 12:35:38;;;;;;;8.35;3.08;;;;;;;16.27;61.88;100657.84;6195694;23;20051;-74
2022/10/10 12:39:10;;;;;;;11.80;2.15;;;;;;;16.73;59.91;100649.97;6214632;23;20027;-74
2022/10/10 12:42:46;;;;;;;9.73;1.80;;;;;;;16.91;60.56;100653.03;6215530;23;20046;-74
2022/10/10 12:46:13;;;;;;;7.63;2.80;;;;;;;16.94;59.25;100655.44;6185381;23;20070;-74
2022/10/10 12:49:22;;;;;;;9.18;2.13;;;;;;;16.69;61.04;100658.25;6214715;23;20115;-74
2022/10/10 12:52:47;;;;;;;11.35;2.85;;;;;;;16.65;59.20;100659.41;6215075;23;20399;-73
2022/10/10 12:56:01;;;;;;;11.13;2.88;;;;;;;16.55;60.53;100651.34;6196739;23;20039;-74
2022/10/10 12:59:15;;;;;;;14.43;3.90;;;;;;;16.36;61.36;100651.88;6214628;23;20082;-74
2022/10/10 13:02:25;;;;;;;10.52;2.13;;;;;;;16.87;59.41;100651.56;6214350;23;20028;-74
2022/10/10 13:05:32;;;;;;;9.38;2.00;;;;;;;16.96;58.02;100642.94;6195278;23;20025;-74
2022/10/10 13:08:40;;;;;;;8.45;2.17;;;;;;;16.72;59.73;100652.75;6214636;23;20027;-74
2022/10/10 13:11:57;;;;;;;11.85;2.30;;;;;;;16.55;61.96;100650.50;6214233;23;20055;-74
2022/10/10 13:15:01;;;;;;;14.98;6.55;;;;;;;16.85;58.97;100642.94;6214113;23;20028;-74
2022/10/10 13:18:05;;;;;;;18.08;3.78;;;;;;;16.79;61.49;100646.06;6214371;23;20024;-74
2022/10/10 13:21:11;;;;;;;15.73;6.18;;;;;;;16.65;60.73;100640.94;6214258;23;20527;-74
2022/10/10 13:24:19;;;;;;;19.63;4.43;;;;;;;16.77;60.10;100642.69;6213772;23;20031;-74
2022/10/10 13:27:34;;;;;;;24.58;4.75;;;;;;;17.01;61.94;100647.06;6214482;23;20507;-74
2022/10/10 13:30:37;;;;;;;16.38;7.05;;;;;;;17.17;59.71;100650.19;6214069;23;20027;-74
2022/10/10 13:33:40;;;;;;;14.82;4.80;;;;;;;17.27;61.25;100651.16;6196132;23;20062;-74
2022/10/10 13:36:44;;;;;;;14.95;4.53;;;;;;;16.63;62.86;100650.78;6193742;23;20071;-74
2022/10/10 13:39:50;;;;;;;16.90;5.60;;;;;;;16.95;57.66;100640.44;6214140;23;20024;-74
2022/10/10 13:42:55;;;;;;;17.70;5.90;;;;;;;16.85;59.24;100642.13;6213964;23;20026;-74
2022/10/10 13:46:02;;;;;;;17.10;4.05;;;;;;;17.16;56.56;100644.03;6215400;23;20118;-74
2022/10/10 13:49:27;;;;;;;21.48;4.57;;;;;;;17.72;55.43;100648.47;6216212;23;20023;-74
2022/10/10 13:52:31;;;;;;;20.88;5.05;;;;;;;17.87;55.02;100641.97;6216881;23;20023;-74
2022/10/10 13:55:37;;;;;;;22.75;5.40;;;;;;;17.51;58.16;100644.88;6217311;23;20055;-73
2022/10/10 13:59:06;;;;;;;21.20;4.72;;;;;;;17.85;55.73;100643.88;6216586;23;20023;-74
2022/10/10 14:02:17;;;;;;;14.85;3.63;;;;;;;17.68;53.92;100647.03;6216483;23;20491;-73
2022/10/10 14:05:28;;;;;;;22.05;3.78;;;;;;;17.86;52.63;100640.25;6216346;23;20075;-73
2022/10/10 14:08:32;;;;;;;18.83;3.75;;;;;;;17.83;55.21;100637.03;6215933;23;20055;-73
2022/10/10 14:11:42;;;;;;;23.60;3.65;;;;;;;17.39;54.27;100639.63;6216471;23;20031;-74
2022/10/10 14:14:48;;;;;;;20.98;6.00;;;;;;;17.82;51.97;100638.84;6197569;23;20032;-74
2022/10/10 14:17:51;;;;;;;19.33;3.58;;;;;;;18.11;49.96;100625.03;6215938;23;20096;-74
2022/10/10 14:20:55;;;;;;;18.92;4.88;;;;;;;17.89;51.48;100631.25;6215105;23;20096;-74
2022/10/10 14:23:58;;;;;;;17.10;3.75;;;;;;;17.84;52.58;100623.69;6215750;23;20063;-74
2022/10/10 14:27:24;;;;;;;18.73;4.00;;;;;;;17.74;55.05;100625.38;6215292;23;20071;-74
2022/10/10 14:30:28;;;;;;;15.63;3.42;;;;;;;17.35;54.68;100630.22;6215456;23;20023;-74
2022/10/10 14:33:32;;;;;;;24.45;4.05;;;;;;;17.28;54.09;100620.28;6214948;23;20586;-74
2022/10/10 14:36:53;;;;;;;24.58;4.43;;;;;;;17.58;53.45;100625.78;6212945;23;20059;-74
2022/10/10 14:39:57;;;;;;;22.02;5.05;;;;;;;17.39;53.59;100630.84;6215282;23;20055;-74
2022/10/10 14:43:01;;;;;;;23.15;4.55;;;;;;;17.09;54.01;100628.78;6215632;23;20082;-73
2022/10/10 14:46:05;;;;;;;30.00;5.68;;;;;;;17.10;55.37;100619.91;6215530;23;20078;-74
2022/10/10 14:49:18;;;;;;;15.07;3.60;;;;;;;16.88;56.75;100620.72;6213445;23;20023;-74
2022/10/10 14:52:21;;;;;;;34.78;9.07;;;;;;;16.79;57.79;100621.44;6214512;23;20026;-74